x

South Bermuda - 300 Nm Sse Of Bermuda (41049) Wave Buoy

8:50pm - Tue 23rd Aug 2016 All times are UTC.

  • Sig Wave height 4.9ft
  • Swell Direction
  • Peak Period 6s
  • Average Period 6s
  • Wind
    16mph, 20mph gusts
  • Sea Temp 86°f
  • Air Temp 85°f
  • Sea Pressure 1018mb

More Historic Weather Station data

Upgrade to MSW Pro to gain access to the past 30 days of data for over 8000 Wavebouys and Weather Stations around the globe.

Join Pro

Comparision Forecast

View Surf forecast
   
Tue 08/23 8:50pm 5ft 6s 6s 16 20 mph 1018mb 86f 85f
7:50pm 5ft 7s 6s 20 25 mph 1018.3mb 86f 81f
6:50pm 6ft 8s 6s 16 20 mph 1018.6mb 86f 83f
5:50pm 6ft 8s 6s 18 20 mph 1018.8mb 86f 85f
4:50pm 6ft 8s 6s 16 18 mph 1019mb 86f 85f
3:50pm 6ft 8s 6s 13 16 mph 1019.4mb 86f 85f
2:50pm 7ft 8s 6s 16 18 mph 1019.2mb 86f 85f
1:50pm 7ft 7s 6s 16 20 mph 1019mb 85f 85f
12:50pm 7ft 8s 6s 18 22 mph 1018.7mb 85f 85f
11:50am 7ft 9s 6s 20 25 mph 1018.3mb 85f 85f
10:50am 7.5ft 10s 6s 18 22 mph 1018.3mb 85f 85f
9:50am 7ft 8s 6s 20 25 mph 1018mb 85f 85f
8:50am 7ft 9s 6s 20 25 mph 1017.9mb 86f 85f
7:50am 7ft 10s 6s 20 22 mph 1018.1mb 85f 85f
6:50am 7ft 11s 7s 18 22 mph 1018mb 86f 85f
5:50am 5.5ft 11s 7s 18 20 mph 1018.3mb 86f 85f
4:50am 5ft 11s 7s 11 13 mph 1019.1mb 86f 84f
3:50am 4.5ft 10s 6s 13 18 mph 1019.3mb 86f 84f
2:50am 4ft 11s 6s 13 16 mph 1019.4mb 86f 84f
1:50am 3.5ft 11s 6s 11 16 mph 1019.6mb 86f 84f
12:50am 3.5ft 11s 6s 9 11 mph 1019.1mb 86f 84f
Mon 08/22 11:50pm 3.5ft 11s 6s 11 13 mph 1018.9mb 87f 84f
10:50pm 3ft 11s 6s 11 13 mph 1019mb 87f 85f
9:50pm 3.5ft 11s 6s 13 16 mph 1019.1mb 87f 85f
8:50pm 3ft 11s 6s 7 11 mph 1018.7mb 87f 85f
7:50pm 3ft 11s 6s 7 11 mph 1018.7mb 87f 85f
6:50pm 3ft 8s 6s 7 9 mph 1018.7mb 87f 85f
5:50pm 2.5ft 8s 5s 7 9 mph 1018.9mb 87f 85f
4:50pm 3ft 5s 5s 4 7 mph 1018.9mb 87f 84f
3:50pm 3ft 7s 6s 4
mph
1019.3mb 86f 84f
2:50pm 2.5ft 8s 6s 4 7 mph 1019.6mb 86f 83f
1:50pm 2.5ft 8s 6s 7 9 mph 1019.5mb 86f 83f
12:50pm 2.5ft 8s 6s 4
mph
1019.7mb 86f 82f
11:50am 2.5ft 8s 6s 4 7 mph 1019.3mb 85f 82f
10:50am 2.5ft 9s 5s 7 9 mph 1019mb 86f 80f
9:50am 2.5ft 8s 5s 11 13 mph 1019.2mb 86f 78f
8:50am 2.5ft 8s 6s 7 9 mph 1018.3mb 86f 81f
6:50am 2.5ft 8s 5s 4 7 mph 1018mb 86f 82f
5:50am 2.5ft 8s 6s 9 13 mph 1018.2mb 85f 80f
4:50am 2.5ft 8s 6s 9 11 mph 1018.5mb 86f 80f
2:50am 2.5ft 8s 6s 7 9 mph 1019.3mb 87f 83f
1:50am 2.5ft 8s 6s 9 11 mph 1019.1mb 87f 83f
12:50am 2.5ft 8s 7s  -  2 mph 1019mb 87f 84f
Sun 08/21 11:50pm 3ft 8s 7s  -  2 mph 1018.6mb 87f 84f
10:50pm 2.5ft 7s 6s 2 4 mph 1018.1mb 87f 84f
9:50pm 2.5ft 8s 7s 4
mph
1017.6mb 87f 85f
8:50pm 2.5ft 8s 7s 2 4 mph 1017.4mb 87f 85f
7:50pm 3ft 9s 7s 4 7 mph 1017.5mb 87f 85f
6:50pm 2.5ft 8s 7s 7 9 mph 1017.4mb 87f 85f
5:50pm 2.5ft 8s 7s 7 9 mph 1017.7mb 87f 85f
4:50pm 2.5ft 7s 7s 7 9 mph 1017.9mb 87f 85f
3:50pm 2.5ft 8s 6s 7 9 mph 1017.9mb 86f 84f
2:50pm 3ft 9s 7s 7
mph
1018.1mb 86f 84f
1:50pm 3ft 8s 7s 7 9 mph 1018.1mb 86f 84f
12:50pm 2.5ft 8s 7s 7 9 mph 1017.6mb 86f 84f
11:50am 2.5ft 7s 7s 4 7 mph 1017.3mb 85f 84f
10:50am 3ft 8s 7s 7
mph
1016.8mb 85f 84f
9:50am 3ft 8s 7s 2 4 mph 1016.2mb 84f 83f
8:50am 2.5ft 8s 7s 4 7 mph 1015.6mb 85f 83f
7:50am 3ft 8s 7s 4 7 mph 1015.3mb 86f 83f
6:50am 2.5ft 8s 7s 4 7 mph 1015.2mb 86f 83f
5:50am 2.5ft 7s 7s 2 4 mph 1015.3mb 86f 83f
4:50am 2.5ft 8s 7s 2
mph
1015.7mb 85f 83f
3:50am 3ft 8s 7s  -  2 mph 1016.2mb 85f 83f
2:50am 3ft 8s 7s  -  2 mph 1016.4mb 85f 83f
1:50am 3ft 7s 7s 2
mph
1016.5mb 86f 83f
12:50am 3ft 8s 7s 4 7 mph 1016.4mb 86f 84f
Sat 08/20 11:50pm 3ft 7s 7s 2 4 mph 1016mb 86f 83f
10:50pm 3ft 8s 7s 2 4 mph 1015.4mb 86f 84f
9:50pm 3.5ft 8s 7s 4 7 mph 1015mb 87f 85f
8:50pm 3.5ft 8s 7s 4 7 mph 1014.7mb 87f 85f
7:50pm 3.5ft 8s 7s 4 7 mph 1014.9mb 87f 84f
6:50pm 3.5ft 7s 6s 4 9 mph 1015mb 88f 84f
5:50pm 3ft 7s 7s 4 7 mph 1015.3mb 88f 84f
4:50pm 3ft 7s 6s 2 4 mph 1015.9mb 87f 83f
3:50pm 3.5ft 8s 6s 4 7 mph 1016.1mb 86f 82f
2:50pm 3.5ft 12s 6s 7 11 mph 1016.3mb 86f 82f
1:50pm 3.5ft 11s 7s  -  2 mph 1016.6mb 86f 84f
12:50pm 3.5ft 7s 6s 2 4 mph 1016.1mb 85f 83f
11:50am 3.5ft 12s 6s 4 7 mph 1015.8mb 85f 80f
10:50am 3.5ft 8s 6s 4 9 mph 1015.5mb 85f 83f
9:50am 3.5ft 8s 6s 4
mph
1015.1mb 85f 82f
8:50am 3.5ft 8s 7s 4 7 mph 1014.7mb 85f 83f
7:50am 3ft 8s 6s 2 4 mph 1014.6mb 85f 82f
6:50am 3ft 8s 6s 2 4 mph 1014.6mb 85f 82f
5:50am 3.5ft 7s 6s 2
mph
1014.8mb 85f 82f
4:50am 3ft 8s 6s 2
mph
1015.1mb 85f 83f
3:50am 3ft 14s 7s 2
mph
1015.5mb 85f 83f
2:50am 3ft 12s 6s 4
mph
1016.1mb 85f 83f
1:50am 3ft 13s 6s 7
mph
1016.4mb 85f 83f
12:50am 3ft 11s 6s 2
mph
1016.3mb 86f 83f
Fri 08/19 11:50pm 3.5ft 13s 6s 2
mph
1016.2mb 86f 83f
10:50pm 3.5ft 13s 6s 4 7 mph 1016.1mb 86f 83f
9:50pm 3.5ft 12s 6s 7 9 mph 1016.4mb 86f 84f